Home > Products > Valid Products > TAF

000
FTUS41 KRLX 040841 AAB
TAFCKB
TAF AMD
KCKB 040841Z 0409/0506 25005KT P6SM SCT025
     FM041200 00000KT 6SM BR HZ SCT015
     FM041400 VRB03KT P6SM BKN025
     FM041600 27004KT P6SM SCT025=



000
FTUS41 KRLX 040841 AAB
TAFEKN
TAF AMD
KEKN 040841Z 0409/0506 25005KT P6SM BKN050
     FM041300 VRB03KT 6SM BR HZ BKN012
     FM041600 27006KT P6SM SCT025
     FM050000 00000KT P6SM SCT060
     FM050500 00000KT 6SM BR SCT040=



000
FTUS41 KRLX 040841 AAA
TAFCRW
TAF AMD
KCRW 040841Z 0409/0506 00000KT P6SM SCT050
     FM041200 00000KT P6SM SCT015
     FM041600 00000KT P6SM SCT025
     FM042000 27006KT P6SM SCT035
     FM050000 VRB03KT P6SM BKN060=



000
FTUS41 KRLX 040841 AAA
TAFPKB
TAF AMD
KPKB 040841Z 0409/0506 00000KT P6SM BKN050
     FM041200 00000KT P6SM SCT025
     FM041900 27006KT P6SM FEW050
     FM050000 00000KT P6SM FEW060=



000
FTUS41 KRLX 040841 AAA
TAFHTS
TAF AMD
KHTS 040841Z 0409/0506 00000KT P6SM BKN040
     FM041000 00000KT 6SM BR SCT040
     FM041200 00000KT 6SM BR SCT015
     FM041700 00000KT P6SM SCT025
     FM042000 27006KT P6SM SCT050
     FM042300 29004KT P6SM BKN050
     FM050200 00000KT P6SM SCT040=



000
FTUS41 KRLX 040841 AAA
TAFBKW
TAF AMD
KBKW 040841Z 0409/0506 24005KT P6SM SCT050
     FM041200 24004KT 6SM BR HZ BKN012
     FM041500 26006KT P6SM SCT015
     FM041700 27007KT P6SM SCT025
     FM042200 29006KT P6SM BKN035
     FM050100 00000KT P6SM BKN035
     FM050400 00000KT 6SM BR BKN025=



000
FTUS41 KRLX 040737 AAA
TAFCKB
TAF AMD
KCKB 040737Z 0408/0506 23005KT P6SM BKN025
     FM041000 00000KT 4SM BR HZ BKN015
     FM041200 00000KT 2SM BR BKN015
     FM041300 00000KT 3SM BR HZ BKN015
     FM041400 VRB03KT 6SM HZ BKN025
     FM041500 VRB03KT P6SM BKN025
     FM041600 27004KT P6SM SCT025=



000
FTUS41 KRLX 040711 AAA
TAFEKN
TAF AMD
KEKN 040711Z 0407/0506 25016G22KT P6SM BKN060
     FM040800 27010G17KT P6SM BKN035
     FM041000 00000KT 3SM BR BKN015
     FM041300 VRB03KT 3SM BR HZ BKN010
     FM041500 27005KT P6SM BKN015
     FM041600 27006KT P6SM SCT025
     FM050000 00000KT P6SM SCT060
     FM050500 00000KT 6SM BR SCT040=



000
FTUS41 KRLX 040558
TAFBKW
TAF
KBKW 040558Z 0406/0506 24005KT P6SM BKN040
     FM040800 23005KT 6SM BR HZ BKN025
     FM041100 24004KT 4SM BR HZ BKN010
     FM041500 26006KT 5SM BR HZ SCT015
     FM041700 27007KT P6SM SCT025
     FM042200 29006KT P6SM BKN035
     FM050100 00000KT P6SM BKN035
     FM050400 00000KT 6SM BR BKN025=



000
FTUS41 KRLX 040558
TAFPKB
TAF
KPKB 040558Z 0406/0506 00000KT P6SM BKN050
     FM040800 00000KT 6SM BR BKN035
     FM040900 00000KT 5SM BR BKN025
     FM041200 00000KT 6SM BR SCT025
     FM041300 00000KT P6SM SCT025
     FM041900 27006KT P6SM FEW050
     FM050000 00000KT P6SM FEW060=



000
FTUS41 KRLX 040558
TAFCKB
TAF
KCKB 040558Z 0406/0506 00000KT P6SM VCTS BKN040CB
     FM040800 00000KT 6SM BR HZ BKN025
     FM041000 00000KT 4SM BR HZ BKN015
     FM041200 00000KT 2SM BR BKN015
     FM041300 00000KT 3SM BR HZ BKN015
     FM041400 VRB03KT 6SM HZ BKN025
     FM041500 VRB03KT P6SM BKN025
     FM041600 27004KT P6SM SCT025=



000
FTUS41 KRLX 040558
TAFHTS
TAF
KHTS 040558Z 0406/0506 00000KT P6SM BKN040
     FM040900 00000KT 6SM BR BKN025
     FM041000 00000KT 5SM BR BKN010
     FM041100 00000KT 4SM BR SCT010
     FM041400 00000KT 6SM BR SCT015
     FM041500 00000KT P6SM SCT015
     FM042000 27006KT P6SM SCT050
     FM042300 29004KT P6SM BKN050
     FM050200 00000KT P6SM SCT040=



000
FTUS41 KRLX 040558
TAFEKN
TAF
KEKN 040558Z 0406/0506 VRB03KT P6SM SHRA VCTS BKN060CB
     FM040800 VRB03KT 6SM BR VCTS BKN035CB
     FM041000 00000KT 3SM BR BKN015
     FM041300 VRB03KT 3SM BR HZ BKN010
     FM041500 27005KT P6SM BKN015
     FM041600 27006KT P6SM SCT025
     FM050000 00000KT P6SM SCT060
     FM050500 00000KT 6SM BR SCT040=



000
FTUS41 KRLX 040558
TAFCRW
TAF
KCRW 040558Z 0406/0506 00000KT P6SM BKN035
     FM041000 00000KT 3SM BR HZ BKN015
     FM041500 00000KT P6SM SCT015
     FM042000 27006KT P6SM SCT035
     FM050000 VRB03KT P6SM BKN060=



000
FTUS41 KRLX 040558
TAFCKB
TAF
KCKB 040558Z 0406/0506 00000KT P6SM VCTS BKN040CB
     FM040800 00000KT 6SM BR HZ BKN025
     FM041000 00000KT 4SM BR HZ BKN015
     FM041200 00000KT 2SM BR BKN015
     FM041300 00000KT 3SM BR HZ BKN015
     FM041400 VRB03KT 6SM HZ BKN025
     FM041500 VRB03KT P6SM BKN025
     FM041600 27004KT P6SM SCT025=



000
FTUS41 KRLX 040558
TAFCRW
TAF
KCRW 040558Z 0406/0506 00000KT P6SM BKN035
     FM041000 00000KT 3SM BR HZ BKN015
     FM041500 00000KT P6SM SCT015
     FM042000 27006KT P6SM SCT035
     FM050000 VRB03KT P6SM BKN060=



000
FTUS41 KRLX 040558
TAFEKN
TAF
KEKN 040558Z 0406/0506 VRB03KT P6SM SHRA VCTS BKN060CB
     FM040800 VRB03KT 6SM BR VCTS BKN035CB
     FM041000 00000KT 3SM BR BKN015
     FM041300 VRB03KT 3SM BR HZ BKN010
     FM041500 27005KT P6SM BKN015
     FM041600 27006KT P6SM SCT025
     FM050000 00000KT P6SM SCT060
     FM050500 00000KT 6SM BR SCT040=



000
FTUS41 KRLX 040558
TAFHTS
TAF
KHTS 040558Z 0406/0506 00000KT P6SM BKN040
     FM040900 00000KT 6SM BR BKN025
     FM041000 00000KT 5SM BR BKN010
     FM041100 00000KT 4SM BR SCT010
     FM041400 00000KT 6SM BR SCT015
     FM041500 00000KT P6SM SCT015
     FM042000 27006KT P6SM SCT050
     FM042300 29004KT P6SM BKN050
     FM050200 00000KT P6SM SCT040=



000
FTUS41 KRLX 040558
TAFBKW
TAF
KBKW 040558Z 0406/0506 24005KT P6SM BKN040
     FM040800 23005KT 6SM BR HZ BKN025
     FM041100 24004KT 4SM BR HZ BKN010
     FM041500 26006KT 5SM BR HZ SCT015
     FM041700 27007KT P6SM SCT025
     FM042200 29006KT P6SM BKN035
     FM050100 00000KT P6SM BKN035
     FM050400 00000KT 6SM BR BKN025=



000
FTUS41 KRLX 040558
TAFPKB
TAF
KPKB 040558Z 0406/0506 00000KT P6SM BKN050
     FM040800 00000KT 6SM BR BKN035
     FM040900 00000KT 5SM BR BKN025
     FM041200 00000KT 6SM BR SCT025
     FM041300 00000KT P6SM SCT025
     FM041900 27006KT P6SM FEW050
     FM050000 00000KT P6SM FEW060=



000
FTUS41 KRLX 040204 AAA
TAFEKN
TAF AMD
KEKN 040204Z 0402/0424 24006KT P6SM SCT050
     FM040400 22006KT P6SM VCTS BKN035CB
     FM040600 VRB03KT 5SM -SHRA BR BKN030
     FM041000 24006KT 5SM BR BKN010
     FM041400 27005KT P6SM BKN020
     FM041600 27006KT P6SM SCT030=



000
FTUS41 KRLX 040204 AAB
TAFCKB
TAF AMD
KCKB 040204Z 0402/0424 23005KT P6SM SCT050 BKN100
     FM040400 VRB03KT 5SM -SHRA VCTS BKN035CB BKN100
     FM040700 23004KT 5SM BR BKN015
     FM041200 23004KT P6SM BKN025
     FM041400 25006KT P6SM SCT035=



000
FTUS41 KRLX 040204 AAC
TAFHTS
TAF AMD
KHTS 040204Z 0402/0424 24007KT 3SM TSRA BKN035CB OVC080
     FM040400 24005KT 6SM -SHRA SCT001 BKN030
     FM040700 26004KT 6SM BR BKN020
     FM041200 26004KT P6SM BKN030
     FM041500 26004KT P6SM SCT035=



000
FTUS41 KRLX 040204 AAB
TAFPKB
TAF AMD
KPKB 040204Z 0402/0424 23008KT P6SM SCT040 BKN120
     FM040300 22006KT 6SM -SHRA VCTS BKN040CB BKN080
     FM040700 25004KT 5SM BR BKN020
     FM041200 31003KT P6SM SCT035
     FM041800 27006KT P6SM SCT045=



000
FTUS41 KRLX 040204 AAA
TAFCRW
TAF AMD
KCRW 040204Z 0402/0424 24005KT P6SM SCT050 BKN100
     FM040300 21005KT 5SM SHRA SCT045 OVC080
      TEMPO 0403/0405 3SM TSRA BKN035CB
     FM040500 21005KT 4SM -SHRA BKN030 BKN100
     FM040800 VRB03KT 5SM BR BKN015
     FM041400 26004KT P6SM BKN025
     FM041700 28005KT P6SM SCT030=



000
FTUS41 KRLX 040204 AAA
TAFBKW
TAF AMD
KBKW 040204Z 0402/0424 23007KT P6SM SCT050
     FM040400 24007KT 5SM -SHRA BKN035 BKN100
      TEMPO 0404/0406 3SM TSRA BR BKN030CB
     FM040900 25006KT 4SM BR BKN010
     FM041400 28007KT P6SM BKN020
     FM041700 28008KT P6SM SCT035=



000
FTUS41 KRLX 040112 AAB
TAFHTS
TAF AMD
KHTS 040112Z 0401/0424 22007KT P6SM SCT050 BKN100
      TEMPO 0401/0402 5SM TSRA BKN050CB
     FM040200 24007KT 3SM TSRA BKN035CB OVC080
     FM040400 24005KT 6SM -SHRA BKN030
     FM040700 26004KT 6SM BR BKN020
     FM041200 26004KT P6SM BKN030
     FM041500 26004KT P6SM SCT035=



000
FTUS41 KRLX 040103 AAA
TAFHTS
TAF AMD
KHTS 040103Z 0401/0424 22007KT P6SM SCT050 BKN100
      TEMPO 0401/0402 5SM SHRA BKN050
     FM040200 24007KT 3SM TSRA BKN040CB BKN080
     FM040400 24005KT 6SM -SHRA BKN030
     FM040700 26004KT 6SM BR BKN020
     FM041200 26004KT P6SM BKN030
     FM041500 26004KT P6SM SCT035=



000
FTUS41 KRLX 040037 AAA
TAFCKB
TAF AMD
KCKB 040037Z 0401/0424 23005KT P6SM SCT050 BKN100
     FM040400 VRB03KT 5SM -SHRA VCTS BKN035CB BKN100
     FM040700 23004KT 5SM BR BKN015
     FM041200 23004KT P6SM BKN025
     FM041400 25006KT P6SM SCT035=



000
FTUS41 KRLX 040037 AAA
TAFCKB
TAF AMD
KCKB 040037Z 0401/0424 23005KT P6SM SCT050 BKN100
     FM040400 VRB03KT 5SM -SHRA VCTS BKN035CB BKN100
     FM040700 23004KT 5SM BR BKN015
     FM041200 23004KT P6SM BKN025
     FM041400 25006KT P6SM SCT035=



000
FTUS41 KRLX 040035 AAA
TAFPKB
TAF AMD
KPKB 040035Z 0401/0424 23008KT P6SM SCT040 BKN120
     FM040300 22006KT 6SM -SHRA VCTS BKN035CB BKN080
     FM040700 25004KT 5SM BR BKN020
     FM041200 31003KT P6SM SCT035
     FM041800 27006KT P6SM SCT045=



000
FTUS41 KRLX 040035 AAA
TAFPKB
TAF AMD
KPKB 040035Z 0401/0424 23008KT P6SM SCT040 BKN120
     FM040300 22006KT 6SM -SHRA VCTS BKN035CB BKN080
     FM040700 25004KT 5SM BR BKN020
     FM041200 31003KT P6SM SCT035
     FM041800 27006KT P6SM SCT045=



000
FTUS41 KRLX 032333
TAFCRW
TAF
KCRW 032333Z 0400/0424 24009KT P6SM BKN250
     FM040300 21008KT P6SM VCTS SCT050CB BKN100
     FM040500 21005KT 5SM -SHRA BKN030 BKN100
     FM040800 VRB03KT 5SM BR BKN015
     FM041400 26004KT P6SM BKN025
     FM041700 28005KT P6SM SCT030=



000
FTUS41 KRLX 032333
TAFPKB
TAF
KPKB 032333Z 0400/0424 23008KT 6SM SHRA BKN045 BKN100
      TEMPO 0401/0403 27014G30KT 4SM TSRA BR BKN030CB
     FM040300 22006KT 6SM -SHRA BKN030 BKN080
     FM040600 25004KT 5SM BR BKN020
     FM041200 31003KT P6SM SCT035
     FM041800 27006KT P6SM SCT045=



000
FTUS41 KRLX 032333
TAFCKB
TAF
KCKB 032333Z 0400/0424 24008KT P6SM BKN050
      TEMPO 0402/0404 26014G30KT 3SM TSRA BR BKN035CB BKN100
     FM040400 VRB03KT 5SM -SHRA BR BKN030
     FM040700 23004KT 5SM BR BKN015
     FM041200 23004KT P6SM BKN025
     FM041400 25006KT P6SM SCT035=



000
FTUS41 KRLX 032333
TAFHTS
TAF
KHTS 032333Z 0400/0424 22007KT P6SM SCT050 BKN100
     FM040200 24007KT 3SM TSRA BKN040CB BKN080
     FM040400 24005KT 6SM -SHRA BKN030
     FM040700 26004KT 6SM BR BKN020
     FM041200 26004KT P6SM BKN030
     FM041500 26004KT P6SM SCT035=



000
FTUS41 KRLX 032333
TAFEKN
TAF
KEKN 032333Z 0400/0424 24006KT P6SM SCT050
     FM040200 22006KT P6SM VCTS BKN035CB
     FM040600 VRB03KT 6SM -SHRA BR BKN030
     FM041000 24006KT P6SM BKN010
     FM041400 27005KT P6SM BKN020
     FM041600 27006KT P6SM SCT030=



000
FTUS41 KRLX 032333
TAFBKW
TAF
KBKW 032333Z 0400/0424 23007KT P6SM FEW050
     FM040500 24007KT 5SM -SHRA BKN035 BKN100
     FM041000 25006KT 4SM BR BKN010
     FM041400 28007KT P6SM BKN020
     FM041700 28008KT P6SM SCT035=



000
FTUS41 KRLX 032333
TAFBKW
TAF
KBKW 032333Z 0400/0424 23007KT P6SM FEW050
     FM040500 24007KT 5SM -SHRA BKN035 BKN100
     FM041000 25006KT 4SM BR BKN010
     FM041400 28007KT P6SM BKN020
     FM041700 28008KT P6SM SCT035=



000
FTUS41 KRLX 032333
TAFPKB
TAF
KPKB 032333Z 0400/0424 23008KT 6SM SHRA BKN045 BKN100
      TEMPO 0401/0403 27014G30KT 4SM TSRA BR BKN030CB
     FM040300 22006KT 6SM -SHRA BKN030 BKN080
     FM040600 25004KT 5SM BR BKN020
     FM041200 31003KT P6SM SCT035
     FM041800 27006KT P6SM SCT045=



000
FTUS41 KRLX 032333
TAFCKB
TAF
KCKB 032333Z 0400/0424 24008KT P6SM BKN050
      TEMPO 0402/0404 26014G30KT 3SM TSRA BR BKN035CB BKN100
     FM040400 VRB03KT 5SM -SHRA BR BKN030
     FM040700 23004KT 5SM BR BKN015
     FM041200 23004KT P6SM BKN025
     FM041400 25006KT P6SM SCT035=



000
FTUS41 KRLX 032333
TAFEKN
TAF
KEKN 032333Z 0400/0424 24006KT P6SM SCT050
     FM040200 22006KT P6SM VCTS BKN035CB
     FM040600 VRB03KT 6SM -SHRA BR BKN030
     FM041000 24006KT P6SM BKN010
     FM041400 27005KT P6SM BKN020
     FM041600 27006KT P6SM SCT030=



000
FTUS41 KRLX 032333
TAFCRW
TAF
KCRW 032333Z 0400/0424 24009KT P6SM BKN250
     FM040300 21008KT P6SM VCTS SCT050CB BKN100
     FM040500 21005KT 5SM -SHRA BKN030 BKN100
     FM040800 VRB03KT 5SM BR BKN015
     FM041400 26004KT P6SM BKN025
     FM041700 28005KT P6SM SCT030=



000
FTUS41 KRLX 032333
TAFHTS
TAF
KHTS 032333Z 0400/0424 22007KT P6SM SCT050 BKN100
     FM040200 24007KT 3SM TSRA BKN040CB BKN080
     FM040400 24005KT 6SM -SHRA BKN030
     FM040700 26004KT 6SM BR BKN020
     FM041200 26004KT P6SM BKN030
     FM041500 26004KT P6SM SCT035=



000
FTUS41 KRLX 032123 AAA
TAFHTS
TAF AMD
KHTS 032123Z 0321/0418 21008G15KT P6SM SCT050
     FM040000 22007KT P6SM VCTS SCT050CB BKN100
     FM040200 24007KT P6SM VCTS BKN030CB
     FM040800 26004KT 6SM BR BKN020
     FM041200 26004KT P6SM SCT030=



000
FTUS41 KRLX 032120 AAA
TAFCRW
TAF AMD
KCRW 032120Z 0321/0418 24009G18KT P6SM SCT050
     FM040100 21008KT P6SM VCTS SCT050CB BKN100
     FM040400 21005KT P6SM VCTS BKN030CB
     FM040800 22004KT 6SM BR BKN020
     FM041300 26004KT P6SM SCT015=



000
FTUS41 KRLX 032118 AAA
TAFPKB
TAF AMD
KPKB 032118Z 0321/0418 24010KT P6SM BKN050
     FM032200 23008KT 5SM SHRA BKN040 BKN100
      TEMPO 0323/0402 3SM TSRA BR BKN030CB
     FM040200 22006KT P6SM VCTS BKN030CB BKN080
     FM040600 25004KT 5SM BR BKN020
     FM041200 31003KT P6SM SCT035=



000
FTUS41 KRLX 032118 AAA
TAFPKB
TAF AMD
KPKB 032118Z 0321/0418 24010KT P6SM BKN050
     FM032200 23008KT 5SM SHRA BKN040 BKN100
      TEMPO 0323/0402 3SM TSRA BR BKN030CB
     FM040200 22006KT P6SM VCTS BKN030CB BKN080
     FM040600 25004KT 5SM BR BKN020
     FM041200 31003KT P6SM SCT035=



000
FTUS41 KRLX 031728
TAFCKB
TAF
KCKB 031728Z 0318/0418 21010G19KT P6SM SKC
     FM032300 21005KT 6SM TSRA HZ BKN045CB
     FM040200 19004KT 3SM TSRA HZ BKN030CB
     FM040500 VRB03KT P6SM VCTS BKN035CB
     FM040900 21004KT P6SM BKN035
     FM041100 23004KT P6SM BKN020=



000
FTUS41 KRLX 031728
TAFCRW
TAF
KCRW 031728Z 0318/0418 21008KT P6SM SKC
     FM032300 21008KT P6SM VCTS BKN050CB
     FM040400 21005KT P6SM VCTS BKN030CB
     FM040800 22004KT P6SM BKN020
     FM041200 26004KT P6SM SCT015=



000
FTUS41 KRLX 031728
TAFPKB
TAF
KPKB 031728Z 0318/0418 25010G16KT P6SM SKC
     FM032100 22010G16KT 5SM TSRA HZ BKN035CB
     FM040000 25008KT 5SM TSRA HZ BKN030CB
     FM040200 22006KT P6SM VCTS BKN030CB
     FM040400 18005KT P6SM VCTS SCT040CB
     FM040800 VRB03KT P6SM SCT035=



000
FTUS41 KRLX 031728
TAFHTS
TAF
KHTS 031728Z 0318/0418 21008KT P6SM SKC
     FM032100 22009KT P6SM VCTS BKN050CB
     FM040300 24007KT P6SM VCTS BKN030CB
     FM040800 24004KT P6SM BKN030
     FM040900 25004KT P6SM SCT030=



000
FTUS41 KRLX 031728
TAFEKN
TAF
KEKN 031728Z 0318/0418 21008G16KT P6SM BKN070
     FM040000 24006KT P6SM VCTS BKN050CB
     FM040300 22006KT P6SM VCTS BKN030CB
     FM040900 23006KT P6SM VCTS BKN020CB
     FM041100 24006KT P6SM BKN010
     FM041400 27005KT P6SM BKN020=



000
FTUS41 KRLX 031728
TAFBKW
TAF
KBKW 031728Z 0318/0418 20008KT P6SM FEW200
     FM032300 23007KT P6SM FEW050
     FM040400 24007KT P6SM VCTS BKN035CB
     FM040700 25007KT P6SM VCTS BKN020CB
     FM041100 25006KT P6SM BKN008
     FM041400 28007KT P6SM BKN020
     FM041700 28008KT P6SM SCT035=



000
FTUS41 KRLX 031443 AAA
TAFCRW
TAF AMD
KCRW 031443Z 0315/0412 20007KT P6SM FEW060
     FM031900 22009G17KT P6SM SCT050
     FM032200 22008G17KT P6SM VCTS SCT050CB
     FM040400 21005KT P6SM VCTS BKN030CB
     FM040800 22004KT P6SM BKN020
     FM041100 26004KT P6SM SCT020=



000
FTUS41 KRLX 031443 AAA
TAFBKW
TAF AMD
KBKW 031443Z 0315/0412 20004KT P6SM FEW050
     FM031800 26008KT P6SM FEW070
     FM032300 23007KT P6SM FEW050
     FM040500 24007KT P6SM VCTS BKN035CB
     FM040700 25007KT P6SM VCTS BKN025CB
     FM040900 25007KT P6SM VCTS BKN020CB
     FM041100 25006KT P6SM BKN010=



000
FTUS41 KRLX 031443 AAA
TAFPKB
TAF AMD
KPKB 031443Z 0315/0412 18007KT P6SM SCT050
     FM031600 23010G15KT P6SM SCT045
     FM031900 23010G16KT P6SM VCTS SCT040CB
     FM032300 24009KT P6SM VCTS BKN035CB
     FM040200 22006KT P6SM VCTS BKN030CB
     FM040600 VRB03KT P6SM SCT035=



000
FTUS41 KRLX 031443 AAA
TAFCKB
TAF AMD
KCKB 031443Z 0315/0412 20004KT P6SM FEW110
     FM031600 23009G15KT P6SM SCT050
     FM032000 22009G15KT P6SM VCTS SCT045CB
     FM032300 21005KT 6SM BR VCTS BKN045CB
     FM040200 19004KT 3SM BR VCTS BKN030CB
     FM040900 21004KT P6SM BKN030=



000
FTUS41 KRLX 031443 AAA
TAFEKN
TAF AMD
KEKN 031443Z 0315/0412 26009KT P6SM FEW060
     FM032300 24007KT P6SM VCTS BKN050CB
     FM040300 22006KT P6SM VCTS BKN030CB
     FM040900 23006KT P6SM VCTS BKN020CB
     FM041100 24006KT P6SM BKN010=



000
FTUS41 KRLX 031443 AAA
TAFHTS
TAF AMD
KHTS 031443Z 0315/0412 18007KT P6SM SCT050
     FM031800 24008KT P6SM SCT050
     FM031900 24008KT P6SM VCTS SCT050CB
     FM040300 24007KT P6SM VCTS BKN030CB
     FM040600 24004KT P6SM BKN030
     FM040900 25004KT P6SM SCT030=



000
FTUS41 KRLX 031443 AAA
TAFEKN
TAF AMD
KEKN 031443Z 0315/0412 26009KT P6SM FEW060
     FM032300 24007KT P6SM VCTS BKN050CB
     FM040300 22006KT P6SM VCTS BKN030CB
     FM040900 23006KT P6SM VCTS BKN020CB
     FM041100 24006KT P6SM BKN010=



000
FTUS41 KRLX 031443 AAA
TAFHTS
TAF AMD
KHTS 031443Z 0315/0412 18007KT P6SM SCT050
     FM031800 24008KT P6SM SCT050
     FM031900 24008KT P6SM VCTS SCT050CB
     FM040300 24007KT P6SM VCTS BKN030CB
     FM040600 24004KT P6SM BKN030
     FM040900 25004KT P6SM SCT030=



000
FTUS41 KRLX 031443 AAA
TAFBKW
TAF AMD
KBKW 031443Z 0315/0412 20004KT P6SM FEW050
     FM031800 26008KT P6SM FEW070
     FM032300 23007KT P6SM FEW050
     FM040500 24007KT P6SM VCTS BKN035CB
     FM040700 25007KT P6SM VCTS BKN025CB
     FM040900 25007KT P6SM VCTS BKN020CB
     FM041100 25006KT P6SM BKN010=



000
FTUS41 KRLX 031443 AAA
TAFCRW
TAF AMD
KCRW 031443Z 0315/0412 20007KT P6SM FEW060
     FM031900 22009G17KT P6SM SCT050
     FM032200 22008G17KT P6SM VCTS SCT050CB
     FM040400 21005KT P6SM VCTS BKN030CB
     FM040800 22004KT P6SM BKN020
     FM041100 26004KT P6SM SCT020=



000
FTUS41 KRLX 031443 AAA
TAFPKB
TAF AMD
KPKB 031443Z 0315/0412 18007KT P6SM SCT050
     FM031600 23010G15KT P6SM SCT045
     FM031900 23010G16KT P6SM VCTS SCT040CB
     FM032300 24009KT P6SM VCTS BKN035CB
     FM040200 22006KT P6SM VCTS BKN030CB
     FM040600 VRB03KT P6SM SCT035=



000
FTUS41 KRLX 031443 AAA
TAFCKB
TAF AMD
KCKB 031443Z 0315/0412 20004KT P6SM FEW110
     FM031600 23009G15KT P6SM SCT050
     FM032000 22009G15KT P6SM VCTS SCT045CB
     FM032300 21005KT 6SM BR VCTS BKN045CB
     FM040200 19004KT 3SM BR VCTS BKN030CB
     FM040900 21004KT P6SM BKN030=



000
FTUS41 KRLX 031120
TAFCKB
TAF
KCKB 031120Z 0312/0412 20004KT P6SM FEW110
     FM031600 23009G15KT P6SM SCT050
     FM032000 22009G15KT P6SM VCTS SCT045CB
     FM032300 21005KT 6SM BR VCTS BKN045CB
     FM040200 19004KT 3SM BR VCTS BKN030CB
     FM040900 21004KT P6SM BKN030=



000
FTUS41 KRLX 031120
TAFCRW
TAF
KCRW 031120Z 0312/0412 VRB03KT P6SM FEW150
     FM031400 22007KT P6SM FEW060
     FM031900 22009G17KT P6SM SCT050
     FM032200 22008G17KT P6SM VCTS SCT050CB
     FM040400 21005KT P6SM VCTS BKN030CB
     FM040800 22004KT P6SM BKN020
     FM041100 26004KT P6SM SCT020=



000
FTUS41 KRLX 031120
TAFCRW
TAF
KCRW 031120Z 0312/0412 VRB03KT P6SM FEW150
     FM031400 22007KT P6SM FEW060
     FM031900 22009G17KT P6SM SCT050
     FM032200 22008G17KT P6SM VCTS SCT050CB
     FM040400 21005KT P6SM VCTS BKN030CB
     FM040800 22004KT P6SM BKN020
     FM041100 26004KT P6SM SCT020=



000
FTUS41 KRLX 031120
TAFCKB
TAF
KCKB 031120Z 0312/0412 20004KT P6SM FEW110
     FM031600 23009G15KT P6SM SCT050
     FM032000 22009G15KT P6SM VCTS SCT045CB
     FM032300 21005KT 6SM BR VCTS BKN045CB
     FM040200 19004KT 3SM BR VCTS BKN030CB
     FM040900 21004KT P6SM BKN030=



000
FTUS41 KRLX 031120
TAFPKB
TAF
KPKB 031120Z 0312/0412 20004KT P6SM BKN070
     FM031400 20007KT P6SM SCT050
     FM031600 23010G15KT P6SM SCT045
     FM031900 23010G16KT P6SM VCTS SCT040CB
     FM032300 24009KT P6SM VCTS BKN035CB
     FM040200 22006KT P6SM VCTS BKN030CB
     FM040600 VRB03KT P6SM SCT035=



000
FTUS41 KRLX 031120
TAFPKB
TAF
KPKB 031120Z 0312/0412 20004KT P6SM BKN070
     FM031400 20007KT P6SM SCT050
     FM031600 23010G15KT P6SM SCT045
     FM031900 23010G16KT P6SM VCTS SCT040CB
     FM032300 24009KT P6SM VCTS BKN035CB
     FM040200 22006KT P6SM VCTS BKN030CB
     FM040600 VRB03KT P6SM SCT035=



000
FTUS41 KRLX 031120
TAFHTS
TAF
KHTS 031120Z 0312/0412 VRB03KT P6SM SCT070
     FM031500 21007KT P6SM SCT050
     FM031800 24008KT P6SM SCT050
     FM031900 24008KT P6SM VCTS SCT050CB
     FM040300 24007KT P6SM VCTS BKN030CB
     FM040600 24004KT P6SM BKN030
     FM040900 25004KT P6SM SCT030=



000
FTUS41 KRLX 031120
TAFBKW
TAF
KBKW 031120Z 0312/0412 20004KT P6SM FEW050
     FM031800 26008KT P6SM FEW070
     FM032300 23007KT P6SM FEW050
     FM040500 24007KT P6SM VCTS BKN035CB
     FM040700 25007KT P6SM VCTS BKN025CB
     FM040900 25007KT P6SM VCTS BKN020CB
     FM041100 25006KT P6SM BKN010=



000
FTUS41 KRLX 031120
TAFEKN
TAF
KEKN 031120Z 0312/0412 20004KT P6SM FEW140
     FM031500 26009G16KT P6SM FEW060
     FM032300 24007KT P6SM VCTS BKN050CB
     FM040300 22006KT P6SM VCTS BKN030CB
     FM040900 23006KT P6SM VCTS BKN020CB
     FM041100 24006KT P6SM BKN010=



000
FTUS41 KRLX 031120
TAFEKN
TAF
KEKN 031120Z 0312/0412 20004KT P6SM FEW140
     FM031500 26009G16KT P6SM FEW060
     FM032300 24007KT P6SM VCTS BKN050CB
     FM040300 22006KT P6SM VCTS BKN030CB
     FM040900 23006KT P6SM VCTS BKN020CB
     FM041100 24006KT P6SM BKN010=



000
FTUS41 KRLX 031120
TAFHTS
TAF
KHTS 031120Z 0312/0412 VRB03KT P6SM SCT070
     FM031500 21007KT P6SM SCT050
     FM031800 24008KT P6SM SCT050
     FM031900 24008KT P6SM VCTS SCT050CB
     FM040300 24007KT P6SM VCTS BKN030CB
     FM040600 24004KT P6SM BKN030
     FM040900 25004KT P6SM SCT030=



000
FTUS41 KRLX 031120
TAFBKW
TAF
KBKW 031120Z 0312/0412 20004KT P6SM FEW050
     FM031800 26008KT P6SM FEW070
     FM032300 23007KT P6SM FEW050
     FM040500 24007KT P6SM VCTS BKN035CB
     FM040700 25007KT P6SM VCTS BKN025CB
     FM040900 25007KT P6SM VCTS BKN020CB
     FM041100 25006KT P6SM BKN010=



000
FTUS41 KRLX 030923 AAA
TAFBKW
TAF AMD
KBKW 030923Z 0309/0406 00000KT P6SM FEW050
     FM031500 27006KT P6SM FEW050
     FM040200 24007KT P6SM BKN045
     FM040500 24007KT P6SM VCTS BKN035CB=



000
FTUS41 KRLX 030923 AAA
TAFEKN
TAF AMD
KEKN 030923Z 0309/0406 00000KT P6SM SCT250
     FM031000 00000KT 6SM BR SCT200
     FM031200 20004KT P6SM FEW140
     FM031500 26009G15KT P6SM FEW060
     FM032300 24007KT P6SM VCTS SCT050CB
     FM040300 22006KT P6SM VCTS BKN030CB=



000
FTUS41 KRLX 030922 AAA
TAFPKB
TAF AMD
KPKB 030922Z 0309/0406 00000KT P6SM SKC
     FM031300 20006KT P6SM FEW060
     FM031700 23010G15KT P6SM SCT045
     FM031900 23010G16KT P6SM VCTS SCT040CB
     FM040300 22006KT P6SM VCTS BKN030CB=



000
FTUS41 KRLX 030922 AAA
TAFHTS
TAF AMD
KHTS 030922Z 0309/0406 00000KT P6SM SKC
     FM031400 21006KT P6SM SCT050
     FM031900 24008KT P6SM VCTS SCT050CB
     FM040300 24007KT P6SM VCTS BKN030CB=



000
FTUS41 KRLX 030922 AAA
TAFCRW
TAF AMD
KCRW 030922Z 0309/0406 00000KT P6SM SCT250
     FM031400 21005KT P6SM FEW050
     FM031900 22009G17KT P6SM SCT050
     FM032200 22008G17KT P6SM VCTS BKN050CB
     FM040400 21005KT P6SM VCTS BKN030CB=



000
FTUS41 KRLX 030922 AAA
TAFCKB
TAF AMD
KCKB 030922Z 0309/0406 00000KT P6SM SKC
     FM031400 22006KT P6SM FEW050
     FM031700 23010G15KT P6SM FEW050
     FM032000 22009G15KT P6SM VCTS SCT045CB
     FM032300 21005KT 6SM BR VCTS BKN045CB
     FM040300 19004KT 5SM SHRA HZ VCTS BKN030CB=



000
FTUS41 KRLX 030520
TAFBKW
TAF
KBKW 030520Z 0306/0406 00000KT P6SM SCT250
     FM030900 00000KT P6SM FEW050
     FM031500 27006KT P6SM FEW050
     FM040200 24007KT P6SM BKN045
     FM040500 24007KT P6SM VCTS BKN035CB=



000
FTUS41 KRLX 030520
TAFEKN
TAF
KEKN 030520Z 0306/0406 00000KT P6SM SCT250
     FM031000 00000KT 5SM BR SCT200
     FM031200 20004KT P6SM FEW140
     FM031500 26009G15KT P6SM FEW060
     FM032300 24007KT P6SM VCTS SCT050CB
     FM040300 22006KT P6SM VCTS BKN030CB=



000
FTUS41 KRLX 030520
TAFPKB
TAF
KPKB 030520Z 0306/0406 00000KT P6SM SKC
     FM031300 20006KT P6SM FEW060
     FM031700 23010G15KT P6SM SCT045
     FM031900 23010G16KT P6SM VCTS SCT040CB
     FM040300 22006KT P6SM VCTS BKN030CB=



000
FTUS41 KRLX 030520
TAFHTS
TAF
KHTS 030520Z 0306/0406 00000KT P6SM SKC
     FM031400 21006KT P6SM SCT050
     FM031900 24008KT P6SM VCTS SCT050CB
     FM040300 24007KT P6SM VCTS BKN030CB=



000
FTUS41 KRLX 030520
TAFCKB
TAF
KCKB 030520Z 0306/0406 00000KT P6SM SKC
     FM031400 22006KT P6SM FEW050
     FM031700 23010G15KT P6SM FEW050
     FM032000 22009G15KT P6SM VCTS SCT045CB
     FM032300 21005KT 6SM BR VCTS BKN045CB
     FM040300 19004KT 5SM SHRA HZ VCTS BKN030CB=



000
FTUS41 KRLX 030520
TAFHTS
TAF
KHTS 030520Z 0306/0406 00000KT P6SM SKC
     FM031400 21006KT P6SM SCT050
     FM031900 24008KT P6SM VCTS SCT050CB
     FM040300 24007KT P6SM VCTS BKN030CB=



000
FTUS41 KRLX 030520
TAFCRW
TAF
KCRW 030520Z 0306/0406 00000KT P6SM SCT250
     FM031400 21005KT P6SM FEW050
     FM031900 22009G17KT P6SM SCT050
     FM032200 22008G17KT P6SM VCTS BKN050CB
     FM040400 21005KT P6SM VCTS BKN030CB=



000
FTUS41 KRLX 030520
TAFCKB
TAF
KCKB 030520Z 0306/0406 00000KT P6SM SKC
     FM031400 22006KT P6SM FEW050
     FM031700 23010G15KT P6SM FEW050
     FM032000 22009G15KT P6SM VCTS SCT045CB
     FM032300 21005KT 6SM BR VCTS BKN045CB
     FM040300 19004KT 5SM SHRA HZ VCTS BKN030CB=



000
FTUS41 KRLX 030520
TAFBKW
TAF
KBKW 030520Z 0306/0406 00000KT P6SM SCT250
     FM030900 00000KT P6SM FEW050
     FM031500 27006KT P6SM FEW050
     FM040200 24007KT P6SM BKN045
     FM040500 24007KT P6SM VCTS BKN035CB=



000
FTUS41 KRLX 030520
TAFPKB
TAF
KPKB 030520Z 0306/0406 00000KT P6SM SKC
     FM031300 20006KT P6SM FEW060
     FM031700 23010G15KT P6SM SCT045
     FM031900 23010G16KT P6SM VCTS SCT040CB
     FM040300 22006KT P6SM VCTS BKN030CB=



000
FTUS41 KRLX 030520
TAFEKN
TAF
KEKN 030520Z 0306/0406 00000KT P6SM SCT250
     FM031000 00000KT 5SM BR SCT200
     FM031200 20004KT P6SM FEW140
     FM031500 26009G15KT P6SM FEW060
     FM032300 24007KT P6SM VCTS SCT050CB
     FM040300 22006KT P6SM VCTS BKN030CB=



000
FTUS41 KRLX 030520
TAFCRW
TAF
KCRW 030520Z 0306/0406 00000KT P6SM SCT250
     FM031400 21005KT P6SM FEW050
     FM031900 22009G17KT P6SM SCT050
     FM032200 22008G17KT P6SM VCTS BKN050CB
     FM040400 21005KT P6SM VCTS BKN030CB=



000
FTUS41 KRLX 030228 AAA
TAFBKW
TAF AMD
KBKW 030228Z 0302/0324 VRB03KT P6SM SKC
     FM030600 15004KT P6SM SCT050
     FM031500 24008KT P6SM SCT045=



000
FTUS41 KRLX 030228 AAA
TAFPKB
TAF AMD
KPKB 030228Z 0302/0324 21003KT P6SM SCT250
     FM030900 19004KT P6SM SCT050 BKN100
     FM031400 22012G22KT P6SM BKN045
     FM031900 24012G20KT P6SM VCTS BKN040CB
     FM032200 26010G20KT 5SM TSRA BKN035CB BKN080=



000
FTUS41 KRLX 030228 AAA
TAFCKB
TAF AMD
KCKB 030228Z 0302/0324 21003KT P6SM SKC
     FM031000 19004KT P6SM BKN100
     FM031500 23012G20KT P6SM SCT045 SCT100
     FM032100 24008G17KT P6SM VCTS BKN045CB
     FM032300 23010G20KT 5SM TSRA BKN035CB BKN080=



000
FTUS41 KRLX 030228 AAA
TAFCRW
TAF AMD
KCRW 030228Z 0302/0324 VRB03KT P6SM SKC
     FM031200 21005KT P6SM SCT100
     FM031500 23009G15KT P6SM SCT045
     FM032300 23007KT P6SM VCTS BKN045CB=



000
FTUS41 KRLX 030228 AAA
TAFEKN
TAF AMD
KEKN 030228Z 0302/0324 00000KT P6SM SCT250
     FM030900 00000KT 4SM BR SCT100
     FM031300 24008KT P6SM SCT100
     FM031600 24008G16KT P6SM SCT050
     FM032300 23008KT P6SM SCT040 BKN080=



000
FTUS41 KRLX 030228 AAA
TAFHTS
TAF AMD
KHTS 030228Z 0302/0324 VRB03KT P6SM SCT250
     FM031000 19004KT P6SM SCT100
     FM031400 23008G16KT P6SM SCT040
     FM032200 24008KT P6SM VCTS BKN045CB BKN080=



000
FTUS41 KRLX 030228 AAA
TAFCRW
TAF AMD
KCRW 030228Z 0302/0324 VRB03KT P6SM SKC
     FM031200 21005KT P6SM SCT100
     FM031500 23009G15KT P6SM SCT045
     FM032300 23007KT P6SM VCTS BKN045CB=



000
FTUS41 KRLX 030228 AAA
TAFEKN
TAF AMD
KEKN 030228Z 0302/0324 00000KT P6SM SCT250
     FM030900 00000KT 4SM BR SCT100
     FM031300 24008KT P6SM SCT100
     FM031600 24008G16KT P6SM SCT050
     FM032300 23008KT P6SM SCT040 BKN080=



000
FTUS41 KRLX 030228 AAA
TAFCKB
TAF AMD
KCKB 030228Z 0302/0324 21003KT P6SM SKC
     FM031000 19004KT P6SM BKN100
     FM031500 23012G20KT P6SM SCT045 SCT100
     FM032100 24008G17KT P6SM VCTS BKN045CB
     FM032300 23010G20KT 5SM TSRA BKN035CB BKN080=



000
FTUS41 KRLX 030228 AAA
TAFBKW
TAF AMD
KBKW 030228Z 0302/0324 VRB03KT P6SM SKC
     FM030600 15004KT P6SM SCT050
     FM031500 24008KT P6SM SCT045=



000
FTUS41 KRLX 030228 AAA
TAFPKB
TAF AMD
KPKB 030228Z 0302/0324 21003KT P6SM SCT250
     FM030900 19004KT P6SM SCT050 BKN100
     FM031400 22012G22KT P6SM BKN045
     FM031900 24012G20KT P6SM VCTS BKN040CB
     FM032200 26010G20KT 5SM TSRA BKN035CB BKN080=



000
FTUS41 KRLX 030228 AAA
TAFHTS
TAF AMD
KHTS 030228Z 0302/0324 VRB03KT P6SM SCT250
     FM031000 19004KT P6SM SCT100
     FM031400 23008G16KT P6SM SCT040
     FM032200 24008KT P6SM VCTS BKN045CB BKN080=



000
FTUS41 KRLX 022329
TAFHTS
TAF
KHTS 022329Z 0300/0324 VRB03KT P6SM SCT250
     FM031000 19004KT P6SM SCT100
     FM031400 23008G16KT P6SM SCT040
     FM032200 24008KT P6SM VCTS BKN045CB BKN080=



000
FTUS41 KRLX 022329
TAFCRW
TAF
KCRW 022329Z 0300/0324 VRB03KT P6SM SKC
     FM031200 21005KT P6SM SCT100
     FM031500 23009G15KT P6SM SCT045
     FM032300 23007KT P6SM VCTS BKN045CB=



000
FTUS41 KRLX 022329
TAFCKB
TAF
KCKB 022329Z 0300/0324 21003KT P6SM SCT250
     FM031000 19004KT P6SM BKN100
     FM031500 23012G20KT P6SM SCT045 SCT100
     FM032100 24008G17KT P6SM VCTS BKN045CB
     FM032300 23007KT 5SM TSRA BKN035CB BKN080=



000
FTUS41 KRLX 022329
TAFPKB
TAF
KPKB 022329Z 0300/0324 21003KT P6SM SCT250
     FM030900 19004KT P6SM SCT050 BKN100
     FM031400 22012G22KT P6SM BKN045
     FM031900 24012G20KT P6SM VCTS BKN040CB
     FM032200 26010G18KT 5SM TSRA BKN035CB BKN080=



000
FTUS41 KRLX 022329
TAFBKW
TAF
KBKW 022329Z 0300/0324 VRB03KT P6SM SKC
     FM030600 15004KT P6SM SCT050
     FM031500 24008KT P6SM SCT045=



000
FTUS41 KRLX 022329
TAFEKN
TAF
KEKN 022329Z 0300/0324 00000KT P6SM SCT250
     FM031000 00000KT 5SM BR SCT100
     FM031300 24008KT P6SM SCT100
     FM031600 24008G16KT P6SM SCT050
     FM032300 23008KT P6SM SCT040 BKN080=



000
FTUS41 KRLX 022329
TAFBKW
TAF
KBKW 022329Z 0300/0324 VRB03KT P6SM SKC
     FM030600 15004KT P6SM SCT050
     FM031500 24008KT P6SM SCT045=



000
FTUS41 KRLX 022329
TAFHTS
TAF
KHTS 022329Z 0300/0324 VRB03KT P6SM SCT250
     FM031000 19004KT P6SM SCT100
     FM031400 23008G16KT P6SM SCT040
     FM032200 24008KT P6SM VCTS BKN045CB BKN080=



000
FTUS41 KRLX 022329
TAFCRW
TAF
KCRW 022329Z 0300/0324 VRB03KT P6SM SKC
     FM031200 21005KT P6SM SCT100
     FM031500 23009G15KT P6SM SCT045
     FM032300 23007KT P6SM VCTS BKN045CB=



000
FTUS41 KRLX 022329
TAFPKB
TAF
KPKB 022329Z 0300/0324 21003KT P6SM SCT250
     FM030900 19004KT P6SM SCT050 BKN100
     FM031400 22012G22KT P6SM BKN045
     FM031900 24012G20KT P6SM VCTS BKN040CB
     FM032200 26010G18KT 5SM TSRA BKN035CB BKN080=



000
FTUS41 KRLX 022329
TAFCKB
TAF
KCKB 022329Z 0300/0324 21003KT P6SM SCT250
     FM031000 19004KT P6SM BKN100
     FM031500 23012G20KT P6SM SCT045 SCT100
     FM032100 24008G17KT P6SM VCTS BKN045CB
     FM032300 23007KT 5SM TSRA BKN035CB BKN080=



000
FTUS41 KRLX 022329
TAFEKN
TAF
KEKN 022329Z 0300/0324 00000KT P6SM SCT250
     FM031000 00000KT 5SM BR SCT100
     FM031300 24008KT P6SM SCT100
     FM031600 24008G16KT P6SM SCT050
     FM032300 23008KT P6SM SCT040 BKN080=



000
FTUS41 KRLX 021740
TAFBKW
TAF
KBKW 021740Z 0218/0318 27004KT P6SM SCT050
     FM030000 22003KT P6SM SCT250
     FM031500 25009KT P6SM SCT250=



000
FTUS41 KRLX 021740
TAFCRW
TAF
KCRW 021740Z 0218/0318 27004KT P6SM FEW050
     FM030000 18002KT P6SM SCT250
     FM031500 23007KT P6SM BKN200=



000
FTUS41 KRLX 021740
TAFEKN
TAF
KEKN 021740Z 0218/0318 30005KT P6SM SCT050
     FM030000 00000KT P6SM SCT250
     FM031000 00000KT 5SM BR SCT100
     FM031300 24008KT P6SM SCT100=



000
FTUS41 KRLX 021740
TAFCKB
TAF
KCKB 021740Z 0218/0318 26006KT P6SM SCT050
     FM030000 21003KT P6SM SCT250
     FM031000 00000KT P6SM BKN100
     FM031500 22005KT P6SM SCT050 SCT100
     FM031700 24008KT P6SM BKN060=



000
FTUS41 KRLX 021740
TAFPKB
TAF
KPKB 021740Z 0218/0318 26006KT P6SM SCT050
     FM030000 21003KT P6SM SCT250
     FM031000 VRB02KT P6SM BKN100
     FM031500 22009KT P6SM SCT050 SCT100
     FM031700 24009KT P6SM BKN060=



000
FTUS41 KRLX 021740
TAFHTS
TAF
KHTS 021740Z 0218/0318 27004KT P6SM SCT250
     FM030000 19002KT P6SM SCT250
     FM031500 22007KT P6SM SCT150=



000
FTUS41 KRLX 021449 AAA
TAFPKB
TAF AMD
KPKB 021449Z 0215/0312 24007KT P6SM SCT050
     FM030100 21002KT P6SM SCT250=



000
FTUS41 KRLX 021449 AAA
TAFBKW
TAF AMD
KBKW 021449Z 0215/0312 00000KT P6SM BKN250
     FM021800 31005KT P6SM SCT050 SCT250
     FM030200 17004KT P6SM SCT250=



000
FTUS41 KRLX 021449 AAA
TAFCKB
TAF AMD
KCKB 021449Z 0215/0312 20004KT P6SM SCT070 SCT250
      TEMPO 0215/0216 BKN070
     FM021600 24007KT P6SM SCT050
     FM030100 21002KT P6SM SCT250=



000
FTUS41 KRLX 021449 AAA
TAFCRW
TAF AMD
KCRW 021449Z 0215/0312 23005KT P6SM SCT050 SCT250
     FM030100 00000KT P6SM SCT250
     FM031000 00000KT 6SM BR FEW003=



000
FTUS41 KRLX 021449 AAA
TAFHTS
TAF AMD
KHTS 021449Z 0215/0312 22006KT P6SM SCT050
     FM022300 21002KT P6SM SCT250=



000
FTUS41 KRLX 021449 AAA
TAFEKN
TAF AMD
KEKN 021449Z 0215/0312 30007KT P6SM SCT250
     FM030100 00000KT P6SM SCT250
     FM031000 VRB03KT 3SM BR FEW001 SCT250=



000
FTUS41 KRLX 021449 AAA
TAFBKW
TAF AMD
KBKW 021449Z 0215/0312 00000KT P6SM BKN250
     FM021800 31005KT P6SM SCT050 SCT250
     FM030200 17004KT P6SM SCT250=



000
FTUS41 KRLX 021449 AAA
TAFCKB
TAF AMD
KCKB 021449Z 0215/0312 20004KT P6SM SCT070 SCT250
      TEMPO 0215/0216 BKN070
     FM021600 24007KT P6SM SCT050
     FM030100 21002KT P6SM SCT250=



000
FTUS41 KRLX 021449 AAA
TAFCRW
TAF AMD
KCRW 021449Z 0215/0312 23005KT P6SM SCT050 SCT250
     FM030100 00000KT P6SM SCT250
     FM031000 00000KT 6SM BR FEW003=



000
FTUS41 KRLX 021449 AAA
TAFEKN
TAF AMD
KEKN 021449Z 0215/0312 30007KT P6SM SCT250
     FM030100 00000KT P6SM SCT250
     FM031000 VRB03KT 3SM BR FEW001 SCT250=



000
FTUS41 KRLX 021449 AAA
TAFPKB
TAF AMD
KPKB 021449Z 0215/0312 24007KT P6SM SCT050
     FM030100 21002KT P6SM SCT250=



000
FTUS41 KRLX 021449 AAA
TAFHTS
TAF AMD
KHTS 021449Z 0215/0312 22006KT P6SM SCT050
     FM022300 21002KT P6SM SCT250=



000
FTUS41 KRLX 021120
TAFEKN
TAF
KEKN 021120Z 0212/0312 00000KT 6SM BR FEW001
     FM021300 00000KT P6SM BKN250
     FM021500 30005KT P6SM BKN250
     FM030600 VRB03KT 6SM BR SCT250
     FM031000 VRB03KT 3SM BR FEW001 SCT250=



000
FTUS41 KRLX 021120
TAFCRW
TAF
KCRW 021120Z 0212/0312 00000KT 6SM BR SCT001 SCT120
     FM021300 23005KT P6SM SCT120 BKN250
     FM030300 VRB03KT P6SM SCT250
     FM031000 00000KT 6SM BR FEW003=



000
FTUS41 KRLX 021120
TAFCKB
TAF
KCKB 021120Z 0212/0312 00000KT 6SM BR SCT250
     FM021300 00000KT P6SM SCT250
     FM021600 24005KT P6SM SCT040
     FM022000 24006KT P6SM BKN250=



000
FTUS41 KRLX 021120
TAFBKW
TAF
KBKW 021120Z 0212/0312 00000KT P6SM BKN250
     FM022000 31005KT P6SM SCT040
     FM030700 17004KT P6SM SCT250=



000
FTUS41 KRLX 021120
TAFCKB
TAF
KCKB 021120Z 0212/0312 00000KT 6SM BR SCT250
     FM021300 00000KT P6SM SCT250
     FM021600 24005KT P6SM SCT040
     FM022000 24006KT P6SM BKN250=



000
FTUS41 KRLX 021120
TAFPKB
TAF
KPKB 021120Z 0212/0312 00000KT P6SM SCT150 SCT250
     FM021400 22004KT P6SM SCT050
     FM022200 23006KT P6SM BKN250=



000
FTUS41 KRLX 021120
TAFHTS
TAF
KHTS 021120Z 0212/0312 00000KT 6SM BR BKN250
     FM021300 18004KT P6SM SCT250
     FM030300 00000KT P6SM SCT250=



000
FTUS41 KRLX 021120
TAFPKB
TAF
KPKB 021120Z 0212/0312 00000KT P6SM SCT150 SCT250
     FM021400 22004KT P6SM SCT050
     FM022200 23006KT P6SM BKN250=



000
FTUS41 KRLX 021120
TAFEKN
TAF
KEKN 021120Z 0212/0312 00000KT 6SM BR FEW001
     FM021300 00000KT P6SM BKN250
     FM021500 30005KT P6SM BKN250
     FM030600 VRB03KT 6SM BR SCT250
     FM031000 VRB03KT 3SM BR FEW001 SCT250=



000
FTUS41 KRLX 021120
TAFCRW
TAF
KCRW 021120Z 0212/0312 00000KT 6SM BR SCT001 SCT120
     FM021300 23005KT P6SM SCT120 BKN250
     FM030300 VRB03KT P6SM SCT250
     FM031000 00000KT 6SM BR FEW003=



000
FTUS41 KRLX 021120
TAFBKW
TAF
KBKW 021120Z 0212/0312 00000KT P6SM BKN250
     FM022000 31005KT P6SM SCT040
     FM030700 17004KT P6SM SCT250=



000
FTUS41 KRLX 021120
TAFHTS
TAF
KHTS 021120Z 0212/0312 00000KT 6SM BR BKN250
     FM021300 18004KT P6SM SCT250
     FM030300 00000KT P6SM SCT250=



000
FTUS41 KRLX 020916 AAA
TAFBKW
TAF AMD
KBKW 020916Z 0209/0306 00000KT P6SM SCT250
     FM021600 31005KT P6SM SCT040=



000
FTUS41 KRLX 020916 AAA
TAFBKW
TAF AMD
KBKW 020916Z 0209/0306 00000KT P6SM SCT250
     FM021600 31005KT P6SM SCT040=



000
FTUS41 KRLX 020916 AAA
TAFCRW
TAF AMD
KCRW 020916Z 0209/0306 00000KT 6SM BR SCT250
     FM021000 00000KT 3SM BR SCT001
     FM021300 22004KT P6SM SCT250=



000
FTUS41 KRLX 020915 AAA
TAFCKB
TAF AMD
KCKB 020915Z 0209/0306 00000KT P6SM SCT250
     FM021300 VRB04KT P6SM SCT250
     FM021700 24005KT P6SM SCT040
     FM022000 24006KT P6SM BKN250=



000
FTUS41 KRLX 020915 AAA
TAFCKB
TAF AMD
KCKB 020915Z 0209/0306 00000KT P6SM SCT250
     FM021300 VRB04KT P6SM SCT250
     FM021700 24005KT P6SM SCT040
     FM022000 24006KT P6SM BKN250=



000
FTUS41 KRLX 020915 AAA
TAFEKN
TAF AMD
KEKN 020915Z 0209/0306 00000KT 6SM BR FEW001
     FM021000 00000KT 3SM BR SCT001
     FM021200 00000KT 6SM BR FEW001
     FM021300 00000KT P6SM SCT250
     FM021500 VRB04KT P6SM SCT250=



000
FTUS41 KRLX 020915 AAA
TAFEKN
TAF AMD
KEKN 020915Z 0209/0306 00000KT 6SM BR FEW001
     FM021000 00000KT 3SM BR SCT001
     FM021200 00000KT 6SM BR FEW001
     FM021300 00000KT P6SM SCT250
     FM021500 VRB04KT P6SM SCT250=



000
FTUS41 KRLX 020914 AAA
TAFPKB
TAF AMD
KPKB 020914Z 0209/0306 00000KT 6SM BR SCT250
      TEMPO 0210/0212 00000KT 5SM BR FEW001
     FM021300 00000KT P6SM SCT250
     FM021500 22004KT P6SM FEW050
     FM022200 23006KT P6SM BKN250=



000
FTUS41 KRLX 020914 AAA
TAFPKB
TAF AMD
KPKB 020914Z 0209/0306 00000KT 6SM BR SCT250
      TEMPO 0210/0212 00000KT 5SM BR FEW001
     FM021300 00000KT P6SM SCT250
     FM021500 22004KT P6SM FEW050
     FM022200 23006KT P6SM BKN250=



000
FTUS41 KRLX 020913 AAA
TAFHTS
TAF AMD
KHTS 020913Z 0209/0306 00000KT 5SM BR SCT250
     FM021200 00000KT 6SM BR SCT250
     FM021300 18004KT P6SM SCT250=



000
FTUS41 KRLX 020913 AAA
TAFHTS
TAF AMD
KHTS 020913Z 0209/0306 00000KT 5SM BR SCT250
     FM021200 00000KT 6SM BR SCT250
     FM021300 18004KT P6SM SCT250=



000
FTUS41 KRLX 020524
TAFEKN
TAF
KEKN 020524Z 0206/0306 00000KT 6SM BR SCT250
     FM020800 00000KT 3SM BR FEW001
     FM021000 00000KT 1/4SM FG VV001
     FM021200 00000KT 3SM BR FEW001
     FM021300 00000KT P6SM SCT250
     FM021500 VRB04KT P6SM SCT250=



000
FTUS41 KRLX 020524
TAFHTS
TAF
KHTS 020524Z 0206/0306 00000KT P6SM SCT250
     FM020900 00000KT 5SM BR SCT250
     FM021000 00000KT 1 1/2SM BR FEW001
     FM021200 00000KT 5SM BR SCT250
     FM021300 18004KT P6SM SCT250=



000
FTUS41 KRLX 020524
TAFBKW
TAF
KBKW 020524Z 0206/0306 00000KT P6SM SCT250
     FM021600 31005KT P6SM SCT040=



000
FTUS41 KRLX 020524
TAFCKB
TAF
KCKB 020524Z 0206/0306 00000KT P6SM SCT250
     FM021000 00000KT 5SM BR SCT250
     FM021300 VRB04KT P6SM SCT250
     FM021700 24005KT P6SM SCT040
     FM022000 24006KT P6SM BKN250=



000
FTUS41 KRLX 020524
TAFPKB
TAF
KPKB 020524Z 0206/0306 00000KT P6SM SCT250
     FM020800 00000KT 6SM BR SCT250
     FM021000 00000KT 3SM BR FEW001
     FM021200 00000KT 5SM BR SCT250
     FM021300 00000KT P6SM SCT250
     FM021500 22004KT P6SM FEW050
     FM022200 23006KT P6SM BKN250=



000
FTUS41 KRLX 020524
TAFCRW
TAF
KCRW 020524Z 0206/0306 00000KT P6SM SCT250
     FM020800 00000KT 5SM BR SCT250
     FM021000 00000KT 1/4SM FG VV001
     FM021200 00000KT 3SM BR FEW001
     FM021300 22004KT P6SM SCT250=



000
FTUS41 KRLX 020224 AAA
TAFPKB
TAF AMD
KPKB 020224Z 0202/0224 00000KT P6SM FEW080
     FM020700 00000KT 5SM BR SKC
     FM020900 00000KT 1SM BR BKN001
     FM021200 00000KT 5SM BR SCT001
     FM021300 23006KT P6SM SCT060=



000
FTUS41 KRLX 020224 AAA
TAFEKN
TAF AMD
KEKN 020224Z 0202/0224 00000KT P6SM SKC
     FM020600 00000KT 4SM BR SCT001
     FM020900 00000KT 1/4SM FG VV001
     FM021200 00000KT 1 1/2SM BR SCT001
     FM021300 28005KT P6SM SCT050=



000
FTUS41 KRLX 020224 AAA
TAFCKB
TAF AMD
KCKB 020224Z 0202/0224 00000KT P6SM SKC
     FM020800 00000KT 5SM BR FEW005
     FM020900 00000KT 2SM BR SCT001
     FM021200 00000KT 5SM BR SCT001
     FM021300 24005KT P6SM SCT050=



000
FTUS41 KRLX 020224 AAA
TAFCRW
TAF AMD
KCRW 020224Z 0202/0224 00000KT P6SM FEW070
     FM020700 00000KT 5SM BR SKC
     FM020900 00000KT 1/4SM FG VV001
     FM021200 00000KT 3SM BR FEW001
     FM021300 VRB03KT P6SM FEW050=



000
FTUS41 KRLX 020224 AAA
TAFBKW
TAF AMD
KBKW 020224Z 0202/0224 00000KT P6SM FEW070
     FM020900 00000KT 6SM BR SKC
     FM021300 29006KT P6SM FEW050=



000
FTUS41 KRLX 020224 AAA
TAFHTS
TAF AMD
KHTS 020224Z 0202/0224 00000KT P6SM FEW080
     FM020800 00000KT 5SM HZ SKC
     FM021000 00000KT 1 1/2SM BR BKN001
     FM021200 00000KT 5SM BR SCT010
     FM021300 24004KT P6SM SCT050=



000
FTUS41 KRLX 012335
TAFBKW
TAF
KBKW 012335Z 0200/0224 32005KT P6SM FEW060
     FM020900 00000KT 6SM BR SKC
     FM021300 29006KT P6SM FEW050=



000
FTUS41 KRLX 012335
TAFHTS
TAF
KHTS 012335Z 0200/0224 31005KT P6SM FEW070
     FM020800 00000KT 5SM HZ SKC
     FM021000 00000KT 1 1/2SM BR BKN001
     FM021200 00000KT 5SM BR SCT010
     FM021300 24004KT P6SM SCT050=



000
FTUS41 KRLX 012335
TAFPKB
TAF
KPKB 012335Z 0200/0224 29004KT P6SM FEW070
     FM020700 00000KT 5SM BR SKC
     FM020900 00000KT 1SM BR BKN001
     FM021200 00000KT 5SM BR SCT001
     FM021300 23006KT P6SM SCT060=



000
FTUS41 KRLX 012335
TAFCRW
TAF
KCRW 012335Z 0200/0224 32004KT P6SM FEW070
     FM020700 00000KT 5SM BR SKC
     FM020900 00000KT 1/4SM FG VV001
     FM021200 00000KT 3SM BR FEW001
     FM021300 VRB03KT P6SM FEW050=



000
FTUS41 KRLX 012335
TAFCKB
TAF
KCKB 012335Z 0200/0224 27006KT P6SM FEW070
     FM020800 00000KT 5SM BR FEW005
     FM020900 00000KT 2SM BR SCT001
     FM021200 00000KT 5SM BR SCT001
     FM021300 24005KT P6SM SCT050=



000
FTUS41 KRLX 012335
TAFEKN
TAF
KEKN 012335Z 0200/0224 29006KT P6SM FEW060
     FM020300 00000KT P6SM FEW060
     FM020600 00000KT 4SM BR SCT001
     FM020900 00000KT 1/4SM FG VV001
     FM021200 00000KT 1 1/2SM BR SCT001
     FM021300 28005KT P6SM SCT050=



000
FTUS41 KRLX 012335
TAFHTS
TAF
KHTS 012335Z 0200/0224 31005KT P6SM FEW070
     FM020800 00000KT 5SM HZ SKC
     FM021000 00000KT 1 1/2SM BR BKN001
     FM021200 00000KT 5SM BR SCT010
     FM021300 24004KT P6SM SCT050=



000
FTUS41 KRLX 012335
TAFEKN
TAF
KEKN 012335Z 0200/0224 29006KT P6SM FEW060
     FM020300 00000KT P6SM FEW060
     FM020600 00000KT 4SM BR SCT001
     FM020900 00000KT 1/4SM FG VV001
     FM021200 00000KT 1 1/2SM BR SCT001
     FM021300 28005KT P6SM SCT050=



000
FTUS41 KRLX 012335
TAFPKB
TAF
KPKB 012335Z 0200/0224 29004KT P6SM FEW070
     FM020700 00000KT 5SM BR SKC
     FM020900 00000KT 1SM BR BKN001
     FM021200 00000KT 5SM BR SCT001
     FM021300 23006KT P6SM SCT060=



000
FTUS41 KRLX 012335
TAFCKB
TAF
KCKB 012335Z 0200/0224 27006KT P6SM FEW070
     FM020800 00000KT 5SM BR FEW005
     FM020900 00000KT 2SM BR SCT001
     FM021200 00000KT 5SM BR SCT001
     FM021300 24005KT P6SM SCT050=



000
FTUS41 KRLX 012335
TAFCRW
TAF
KCRW 012335Z 0200/0224 32004KT P6SM FEW070
     FM020700 00000KT 5SM BR SKC
     FM020900 00000KT 1/4SM FG VV001
     FM021200 00000KT 3SM BR FEW001
     FM021300 VRB03KT P6SM FEW050=



000
FTUS41 KRLX 012335
TAFBKW
TAF
KBKW 012335Z 0200/0224 32005KT P6SM FEW060
     FM020900 00000KT 6SM BR SKC
     FM021300 29006KT P6SM FEW050=



000
FTUS41 KRLX 011733
TAFCKB
TAF
KCKB 011733Z 0118/0218 28007KT P6SM SCT060
     FM020000 28005KT P6SM SCT250
     FM020800 00000KT 6SM BR SCT250
     FM021000 00000KT 2SM BR SCT001
     FM021200 00000KT 5SM BR SCT250
     FM021300 21002KT P6SM SCT250
     FM021700 24006KT P6SM SCT050=



000
FTUS41 KRLX 011733
TAFCRW
TAF
KCRW 011733Z 0118/0218 29007KT P6SM SCT060
     FM020100 00000KT P6SM SKC
     FM020800 00000KT 6SM BR SKC
     FM020900 00000KT 3SM BR SKC
     FM021000 00000KT 1/4SM FG VV001
     FM021200 00000KT 2SM BR BKN002
     FM021300 20002KT P6SM SCT250
     FM021600 23005KT P6SM SCT050=



000
FTUS41 KRLX 011733
TAFPKB
TAF
KPKB 011733Z 0118/0218 29008KT P6SM FEW060
     FM020100 32002KT P6SM SKC
     FM020800 00000KT 6SM BR SKC
     FM021000 00000KT 1SM BR BKN001
     FM021200 20002KT 4SM BR SCT002
     FM021300 21004KT P6SM SCT250
     FM021600 24006KT P6SM SCT050=



000
FTUS41 KRLX 011733
TAFHTS
TAF
KHTS 011733Z 0118/0218 30007KT P6SM FEW060
     FM020100 32002KT P6SM SKC
     FM020800 00000KT 6SM BR SKC
     FM021000 00000KT 1SM BR BKN001
     FM021200 20002KT 4SM BR SCT002
     FM021300 21004KT P6SM SCT250
     FM021600 24006KT P6SM SCT050=



000
FTUS41 KRLX 011733
TAFEKN
TAF
KEKN 011733Z 0118/0218 29008KT P6SM SCT050
     FM020100 28002KT P6SM SKC
     FM020600 00000KT 5SM BR SKC
     FM020700 00000KT 2SM BR SCT001
     FM020900 00000KT 1/4SM FG VV001
     FM021200 00000KT 1SM BR BKN001
     FM021300 22002KT 4SM BR SCT002
     FM021400 23004KT P6SM FEW050
     FM021600 28006KT P6SM SCT050=



000
FTUS41 KRLX 011733
TAFBKW
TAF
KBKW 011733Z 0118/0218 30008G12KT P6SM SCT045
     FM020100 32004KT P6SM SKC
     FM020900 00000KT 6SM BR SKC
     FM021200 25003KT P6SM SKC
     FM021500 28006KT P6SM SCT045=



000
FTUS41 KRLX 011442 AAA
TAFBKW
TAF AMD
KBKW 011442Z 0115/0212 30007KT P6SM SCT045
     FM020000 VRB03KT P6SM FEW060=



000
FTUS41 KRLX 011442 AAA
TAFHTS
TAF AMD
KHTS 011442Z 0115/0212 30005KT P6SM FEW050
     FM020400 00000KT P6SM SKC=



000
FTUS41 KRLX 011442 AAA
TAFPKB
TAF AMD
KPKB 011442Z 0115/0212 34003KT P6SM SCT250
     FM011600 30006KT P6SM FEW050
     FM020200 00000KT P6SM FEW060=



000
FTUS41 KRLX 011442 AAA
TAFCRW
TAF AMD
KCRW 011442Z 0115/0212 VRB03KT P6SM FEW050
     FM011700 30007KT P6SM FEW060
     FM012300 VRB03KT P6SM FEW060
     FM021000 00000KT 6SM BR SCT250=



000
FTUS41 KRLX 011442 AAA
TAFCKB
TAF AMD
KCKB 011442Z 0115/0212 27003KT P6SM SCT045
     FM011600 30007KT P6SM FEW050
     FM020000 VRB03KT P6SM SCT060
     FM021100 00000KT 6SM BR SCT250=



000
FTUS41 KRLX 011442 AAC
TAFEKN
TAF AMD
KEKN 011442Z 0115/0212 28005KT P6SM SCT045
     FM011800 30009KT P6SM SCT050
     FM012300 32004KT P6SM FEW050
     FM020800 00000KT 5SM BR FEW040
     FM021000 00000KT 1SM BR SCT001=



000
FTUS41 KRLX 011358 AAB
TAFEKN
TAF AMD
KEKN 011358Z 0114/0212 VRB02KT P6SM BKN045
     FM011500 27005KT P6SM SCT045
     FM012000 30009KT P6SM SCT050
     FM012300 32004KT P6SM FEW050
     FM020800 00000KT 5SM BR FEW040
     FM021000 00000KT 1SM BR SCT001=



000
FTUS41 KRLX 011358 AAB
TAFEKN
TAF AMD
KEKN 011358Z 0114/0212 VRB02KT P6SM BKN045
     FM011500 27005KT P6SM SCT045
     FM012000 30009KT P6SM SCT050
     FM012300 32004KT P6SM FEW050
     FM020800 00000KT 5SM BR FEW040
     FM021000 00000KT 1SM BR SCT001=



000
FTUS41 KRLX 011252 AAA
TAFEKN
TAF AMD
KEKN 011252Z 0113/0212 VRB02KT P6SM BKN025 BKN040
      TEMPO 0115/0116 SCT025
     FM011600 27005KT P6SM SCT040
     FM012000 29009KT P6SM SCT050
     FM012300 31004KT P6SM FEW050
     FM020800 00000KT 5SM BR FEW040
     FM021000 00000KT 1SM BR SCT001=



000
FTUS41 KRLX 011252 AAA
TAFEKN
TAF AMD
KEKN 011252Z 0113/0212 VRB02KT P6SM BKN025 BKN040
      TEMPO 0115/0116 SCT025
     FM011600 27005KT P6SM SCT040
     FM012000 29009KT P6SM SCT050
     FM012300 31004KT P6SM FEW050
     FM020800 00000KT 5SM BR FEW040
     FM021000 00000KT 1SM BR SCT001=



000
FTUS41 KRLX 011120
TAFBKW
TAF
KBKW 011120Z 0112/0212 VRB03KT P6SM SCT050
     FM011700 30007KT P6SM SCT045
     FM020000 VRB03KT P6SM FEW060=



000
FTUS41 KRLX 011120
TAFPKB
TAF
KPKB 011120Z 0112/0212 VRB03KT P6SM SCT250
     FM011600 28006KT P6SM FEW050
     FM020200 00000KT P6SM FEW060=



000
FTUS41 KRLX 011120
TAFBKW
TAF
KBKW 011120Z 0112/0212 VRB03KT P6SM SCT050
     FM011700 30007KT P6SM SCT045
     FM020000 VRB03KT P6SM FEW060=



000
FTUS41 KRLX 011120
TAFEKN
TAF
KEKN 011120Z 0112/0212 VRB04KT 6SM BR SCT060
     FM011400 27005KT P6SM SCT040
     FM012000 29009KT P6SM SCT050
     FM012300 31004KT P6SM FEW050
     FM020800 00000KT 5SM BR FEW040
     FM021000 00000KT 1SM BR SCT001=



000
FTUS41 KRLX 011120
TAFHTS
TAF
KHTS 011120Z 0112/0212 00000KT P6SM FEW050
     FM011500 29005KT P6SM FEW050
     FM020400 00000KT P6SM SKC=



000
FTUS41 KRLX 011120
TAFEKN
TAF
KEKN 011120Z 0112/0212 VRB04KT 6SM BR SCT060
     FM011400 27005KT P6SM SCT040
     FM012000 29009KT P6SM SCT050
     FM012300 31004KT P6SM FEW050
     FM020800 00000KT 5SM BR FEW040
     FM021000 00000KT 1SM BR SCT001=



000
FTUS41 KRLX 011120
TAFCKB
TAF
KCKB 011120Z 0112/0212 VRB03KT P6SM SCT045
     FM011600 27007KT P6SM FEW050
     FM020000 VRB03KT P6SM SCT060
     FM021100 00000KT 6SM BR SCT250=



000
FTUS41 KRLX 011120
TAFHTS
TAF
KHTS 011120Z 0112/0212 00000KT P6SM FEW050
     FM011500 29005KT P6SM FEW050
     FM020400 00000KT P6SM SKC=



000
FTUS41 KRLX 011120
TAFCKB
TAF
KCKB 011120Z 0112/0212 VRB03KT P6SM SCT045
     FM011600 27007KT P6SM FEW050
     FM020000 VRB03KT P6SM SCT060
     FM021100 00000KT 6SM BR SCT250=



000
FTUS41 KRLX 011120
TAFCRW
TAF
KCRW 011120Z 0112/0212 VRB03KT P6SM FEW050
     FM011700 29007KT P6SM FEW060
     FM012300 VRB03KT P6SM FEW060
     FM021000 00000KT 6SM BR SCT250=



000
FTUS41 KRLX 011120
TAFCRW
TAF
KCRW 011120Z 0112/0212 VRB03KT P6SM FEW050
     FM011700 29007KT P6SM FEW060
     FM012300 VRB03KT P6SM FEW060
     FM021000 00000KT 6SM BR SCT250=



000
FTUS41 KRLX 011120
TAFPKB
TAF
KPKB 011120Z 0112/0212 VRB03KT P6SM SCT250
     FM011600 28006KT P6SM FEW050
     FM020200 00000KT P6SM FEW060=



000
FTUS41 KRLX 011010 AAB
TAFCRW
TAF AMD
KCRW 011010Z 0110/0206 00000KT P6SM SCT250
     FM011200 VRB03KT P6SM FEW060
     FM011700 29007KT P6SM FEW060
     FM012300 VRB03KT P6SM FEW060=



000
FTUS41 KRLX 011010 AAB
TAFEKN
TAF AMD
KEKN 011010Z 0110/0206 VRB03KT 6SM BR SCT060
     FM011300 27005KT P6SM SCT040
     FM012000 29009KT P6SM SCT050
     FM012300 31004KT P6SM FEW050=



    US Dept of Commerce
    National Oceanic and Atmospheric Administration
    National Weather Service
    1325 East West Highway
    Silver Spring, MD 20910
    Page Author: NWS Internet Services Team
Disclaimer
Information Quality
Credits
Glossary
Privacy Policy
Freedom of Information Act (FOIA)
About Us
Career Opportunities